Time;durP1;ratioP1;P1;durP2;ratioP2;P2;SDS_P1;SDS_P2;PMS_P1;PMS_P2;Temp;Humidity;BMP_temperature;BMP_pressure;BME280_temperature;BME280_humidity;BME280_pressure;Samples;Min_cycle;Max_cycle;Signal;HPM_P1;HPM_P2
2022/02/05 00:05:53;;;;;;;2.78;1.73;;;4.00;99.90;;;;;;4990015;28;20038;-65
2022/02/05 00:43:10;;;;;;;4.18;1.92;;;4.00;99.90;;;;;;4983285;28;20018;-66
2022/02/05 00:45:40;;;;;;;5.47;3.00;;;3.90;99.90;;;;;;4986817;28;20019;-66
2022/02/05 00:48:06;;;;;;;;;;;4.00;99.90;;;;;;4984235;28;20073;-66
2022/02/05 00:50:36;;;;;;;2.53;1.52;;;3.90;99.90;;;;;;4983278;28;20373;-66
2022/02/05 00:53:07;;;;;;;1.63;1.00;;;3.80;99.90;;;;;;4985695;28;21149;-66
2022/02/05 00:55:37;;;;;;;4.00;1.60;;;3.70;99.90;;;;;;4980688;28;20073;-66
2022/02/05 00:58:05;;;;;;;0.93;0.83;;;3.70;99.90;;;;;;4988488;28;20810;-66
2022/02/05 01:00:33;;;;;;;6.78;3.42;;;3.70;99.90;;;;;;4988235;28;20022;-66
2022/02/05 01:02:58;;;;;;;6.25;2.78;;;3.70;99.90;;;;;;4982914;28;20072;-66
2022/02/05 01:05:24;;;;;;;6.18;2.97;;;3.70;99.90;;;;;;4985957;28;20022;-66
2022/02/05 01:07:50;;;;;;;4.30;2.40;;;3.70;99.90;;;;;;4980363;28;20051;-66
2022/02/05 01:10:16;;;;;;;4.50;2.40;;;3.80;99.90;;;;;;4976830;28;20498;-66
2022/02/05 01:12:49;;;;;;;8.93;3.75;;;3.80;99.90;;;;;;4981774;28;20057;-66
2022/02/05 01:15:18;;;;;;;0.82;0.70;;;3.80;99.90;;;;;;4989926;28;20145;-66
2022/02/05 01:17:49;;;;;;;3.03;1.58;;;3.70;99.90;;;;;;4982475;28;20105;-66
2022/02/05 01:20:43;;;;;;;15.38;3.22;;;3.70;99.90;;;;;;4982406;28;20057;-66
2022/02/05 01:23:07;;;;;;;4.40;2.90;;;3.60;99.90;;;;;;4981888;28;20041;-66
2022/02/05 01:25:39;;;;;;;36.95;3.83;;;3.70;99.90;;;;;;4984573;28;20038;-66
2022/02/05 01:28:19;;;;;;;4.05;1.55;;;3.70;99.90;;;;;;4982859;28;20061;-66
2022/02/05 01:30:49;;;;;;;4.18;1.63;;;3.80;99.90;;;;;;4985209;28;20031;-66
2022/02/05 01:50:14;;;;;;;2.00;1.17;;;3.50;99.90;;;;;;4986090;28;20065;-66
2022/02/05 01:55:31;;;;;;;2.88;1.83;;;3.50;99.90;;;;;;4985610;28;20395;-66
2022/02/05 01:58:17;;;;;;;2.22;1.17;;;3.50;99.90;;;;;;4983167;28;20479;-66
2022/02/05 02:19:34;;;;;;;5.55;2.65;;;3.30;99.90;;;;;;4985461;28;20023;-66
2022/02/05 02:24:45;;;;;;;2.13;1.38;;;3.40;99.90;;;;;;4985932;28;20030;-66
2022/02/05 02:32:05;;;;;;;10.88;2.22;;;3.20;99.90;;;;;;4984267;28;20022;-66
2022/02/05 02:34:36;;;;;;;4.25;2.03;;;3.20;99.90;;;;;;4985620;28;20042;-66
2022/02/05 02:37:12;;;;;;;10.77;1.27;;;3.10;99.90;;;;;;4986580;28;20041;-66
2022/02/05 02:42:20;;;;;;;3.63;1.58;;;3.10;99.90;;;;;;4985393;28;20030;-66
2022/02/05 02:44:46;;;;;;;14.68;1.95;;;3.10;99.90;;;;;;4990085;28;20105;-66
2022/02/05 02:47:12;;;;;;;1.30;1.00;;;3.10;99.90;;;;;;4984093;28;20518;-66
2022/02/05 02:57:55;;;;;;;11.48;1.27;;;3.10;99.90;;;;;;4986731;28;20038;-66
2022/02/05 03:00:21;;;;;;;0.70;0.70;;;3.00;99.90;;;;;;4985811;28;20097;-66
2022/02/05 03:02:47;;;;;;;10.98;2.45;;;3.00;99.90;;;;;;4984331;28;20098;-66
2022/02/05 03:05:13;;;;;;;2.63;1.77;;;3.10;99.90;;;;;;4987452;28;20018;-66
2022/02/05 03:07:38;;;;;;;1.65;0.98;;;3.00;99.90;;;;;;4983358;28;20125;-66
2022/02/05 03:10:04;;;;;;;1.20;0.90;;;3.00;99.90;;;;;;4985620;28;20068;-66
2022/02/05 03:12:30;;;;;;;2.80;1.52;;;3.10;99.90;;;;;;4988250;28;20027;-66
2022/02/05 03:14:56;;;;;;;1.75;1.00;;;3.10;99.90;;;;;;4991481;28;20081;-66
2022/02/05 03:17:24;;;;;;;2.85;1.45;;;3.10;99.90;;;;;;4983167;28;20039;-66
2022/02/05 03:19:52;;;;;;;5.03;1.98;;;3.00;99.90;;;;;;4989148;28;20041;-66
2022/02/05 03:22:21;;;;;;;6.43;2.17;;;3.00;99.90;;;;;;4991222;28;20027;-66
2022/02/05 03:24:48;;;;;;;1.88;1.35;;;3.10;99.90;;;;;;4988096;28;20501;-65
2022/02/05 03:27:15;;;;;;;1.10;0.70;;;3.30;99.90;;;;;;4985375;28;20050;-66
2022/02/05 03:29:45;;;;;;;8.20;2.15;;;3.30;99.90;;;;;;4989495;28;20073;-66
2022/02/05 03:32:11;;;;;;;8.77;2.75;;;3.40;99.90;;;;;;4985795;28;20097;-66
2022/02/05 03:34:39;;;;;;;1.90;1.10;;;3.30;99.90;;;;;;4983209;28;20137;-66
2022/02/05 03:37:05;;;;;;;5.15;1.95;;;3.40;99.90;;;;;;4986755;28;20065;-66
2022/02/05 03:39:31;;;;;;;1.90;1.10;;;3.40;99.90;;;;;;4983384;28;20113;-66
2022/02/05 03:41:57;;;;;;;6.20;1.80;;;3.40;99.90;;;;;;4985903;28;20602;-66
2022/02/05 03:44:23;;;;;;;4.47;2.08;;;3.40;99.90;;;;;;4989781;28;20030;-66
2022/02/05 03:46:50;;;;;;;11.75;1.90;;;3.40;99.90;;;;;;4989635;28;20030;-66
2022/02/05 03:49:17;;;;;;;2.05;1.15;;;3.40;99.90;;;;;;4985958;28;20018;-66
2022/02/05 03:51:44;;;;;;;0.80;0.80;;;3.40;99.90;;;;;;5004035;28;20104;-66
2022/02/05 03:54:11;;;;;;;3.15;1.50;;;3.40;99.90;;;;;;4990014;28;20050;-66
2022/02/05 03:56:36;;;;;;;2.03;1.42;;;3.40;99.90;;;;;;4981467;28;20624;-66
2022/02/05 03:59:02;;;;;;;1.50;1.25;;;3.40;99.90;;;;;;4992692;28;20023;-66
2022/02/05 04:01:28;;;;;;;3.47;2.03;;;3.30;99.90;;;;;;4989118;28;20113;-66
2022/02/05 04:03:53;;;;;;;2.67;1.60;;;3.30;99.90;;;;;;4983936;28;20407;-66
2022/02/05 04:06:19;;;;;;;3.30;1.20;;;3.30;99.90;;;;;;4986977;28;20038;-66
2022/02/05 04:08:46;;;;;;;0.80;0.80;;;3.30;99.90;;;;;;4991779;28;20081;-66
2022/02/05 04:16:42;;;;;;;6.32;1.73;;;3.40;99.90;;;;;;4989190;28;20046;-66
2022/02/05 04:19:07;;;;;;;3.25;1.35;;;3.40;99.90;;;;;;4979313;28;20031;-66
2022/02/05 04:21:34;;;;;;;1.80;1.27;;;3.40;99.90;;;;;;4984129;28;20046;-66
2022/02/05 04:24:01;;;;;;;2.08;1.40;;;3.50;99.90;;;;;;4984088;28;20466;-66
2022/02/05 04:26:28;;;;;;;3.95;2.25;;;3.50;99.90;;;;;;4983806;28;20026;-66
2022/02/05 04:28:54;;;;;;;2.42;1.17;;;3.60;99.90;;;;;;4992030;28;20026;-66
2022/02/05 04:31:20;;;;;;;6.22;1.95;;;3.60;99.90;;;;;;4986795;28;20490;-66
2022/02/05 04:33:45;;;;;;;2.65;1.60;;;3.60;99.90;;;;;;4985682;28;20090;-66
2022/02/05 04:36:12;;;;;;;11.10;2.10;;;3.60;99.90;;;;;;4980644;28;20034;-66
2022/02/05 04:38:40;;;;;;;3.80;1.73;;;3.60;99.90;;;;;;4981745;28;20484;-66
2022/02/05 04:43:52;;;;;;;0.98;0.90;;;3.50;99.90;;;;;;4986171;28;20443;-66
2022/02/05 04:46:50;;;;;;;5.13;1.25;;;3.50;99.90;;;;;;4986140;28;20470;-66
2022/02/05 04:49:30;;;;;;;2.40;1.15;;;3.40;99.90;;;;;;4987034;28;20022;-66
2022/02/05 04:52:12;;;;;;;2.00;1.38;;;3.40;99.90;;;;;;4985809;28;20382;-66
2022/02/05 04:57:31;;;;;;;24.40;2.38;;;3.60;99.90;;;;;;4985319;28;20074;-66
2022/02/05 05:00:31;;;;;;;0.70;0.70;;;3.60;99.90;;;;;;4993795;28;20470;-66
2022/02/05 05:10:33;;;;;;;5.13;2.25;;;3.80;99.90;;;;;;4988457;28;20089;-66
2022/02/05 05:13:14;;;;;;;0.80;0.80;;;3.80;99.90;;;;;;4990065;28;20057;-66
2022/02/05 05:20:51;;;;;;;2.40;1.10;;;3.80;99.90;;;;;;4981158;28;20041;-66
2022/02/05 05:23:16;;;;;;;5.22;1.60;;;3.80;99.90;;;;;;4985121;28;20019;-66
2022/02/05 05:25:42;;;;;;;2.50;0.98;;;3.80;99.90;;;;;;4985568;28;20102;-66
2022/02/05 05:28:07;;;;;;;6.43;1.80;;;3.90;99.90;;;;;;4982484;28;20386;-66
2022/02/05 05:30:33;;;;;;;1.17;1.00;;;3.90;99.90;;;;;;4986565;28;20019;-66
2022/02/05 05:32:59;;;;;;;3.42;1.77;;;3.90;99.90;;;;;;4981165;28;20027;-66
2022/02/05 05:35:24;;;;;;;11.85;1.38;;;3.90;99.90;;;;;;5001551;28;20030;-66
2022/02/05 05:37:51;;;;;;;5.47;2.22;;;3.90;99.90;;;;;;5000062;28;20479;-66
2022/02/05 05:40:17;;;;;;;2.00;1.20;;;3.80;99.90;;;;;;4986936;28;20428;-66
2022/02/05 05:42:48;;;;;;;5.30;2.17;;;3.80;99.90;;;;;;5003250;28;20023;-66
2022/02/05 05:48:13;;;;;;;1.10;0.98;;;3.70;99.90;;;;;;4986220;28;20110;-66
2022/02/05 05:53:12;;;;;;;2.03;0.85;;;3.80;99.90;;;;;;4989009;28;20109;-66
2022/02/05 05:55:46;;;;;;;4.22;1.95;;;3.80;99.90;;;;;;4984629;28;20098;-66
2022/02/05 05:58:13;;;;;;;10.00;1.50;;;3.80;99.90;;;;;;4987528;28;20516;-66
2022/02/05 06:00:40;;;;;;;1.20;1.10;;;3.80;99.90;;;;;;4984844;28;20031;-66
2022/02/05 06:03:06;;;;;;;2.17;1.17;;;3.80;99.90;;;;;;4985320;28;20382;-66
2022/02/05 06:05:31;;;;;;;2.90;1.48;;;3.80;99.90;;;;;;4985970;28;20365;-66
2022/02/05 06:07:58;;;;;;;6.00;1.85;;;3.80;99.90;;;;;;4984687;28;20046;-66
2022/02/05 06:10:23;;;;;;;2.85;1.67;;;3.80;99.90;;;;;;4985207;28;20109;-66
2022/02/05 06:12:50;;;;;;;2.08;1.13;;;3.90;99.90;;;;;;4987984;28;20415;-66
2022/02/05 06:15:15;;;;;;;4.68;1.63;;;3.90;99.90;;;;;;4994860;28;20393;-66
2022/02/05 06:17:41;;;;;;;4.15;2.05;;;3.90;99.90;;;;;;4984043;28;20121;-66
2022/02/05 06:20:08;;;;;;;4.28;1.48;;;3.90;99.90;;;;;;4990121;28;20061;-66
2022/02/05 06:22:34;;;;;;;3.60;1.55;;;3.90;99.90;;;;;;5003187;28;20398;-66
2022/02/05 06:25:00;;;;;;;3.95;1.80;;;3.90;99.90;;;;;;4989190;28;20101;-66
2022/02/05 06:27:25;;;;;;;1.25;0.80;;;3.90;99.90;;;;;;4984555;28;20105;-66
2022/02/05 06:29:51;;;;;;;2.25;1.15;;;3.80;99.90;;;;;;4987039;28;20042;-66
2022/02/05 06:32:17;;;;;;;2.80;1.35;;;3.80;99.90;;;;;;4986666;28;20062;-66
2022/02/05 06:34:44;;;;;;;6.78;2.10;;;3.70;99.90;;;;;;4988451;28;20146;-66
2022/02/05 06:37:10;;;;;;;1.80;1.23;;;3.70;99.90;;;;;;4990444;28;20022;-66
2022/02/05 06:39:36;;;;;;;1.40;1.10;;;3.70;99.90;;;;;;4991702;28;20045;-66
2022/02/05 06:42:02;;;;;;;3.65;1.83;;;3.60;99.90;;;;;;4997967;28;20018;-66
2022/02/05 06:44:27;;;;;;;2.10;1.33;;;3.50;99.90;;;;;;4997923;28;20345;-66
2022/02/05 06:46:53;;;;;;;2.95;1.48;;;3.60;99.90;;;;;;4999849;28;20526;-66
2022/02/05 06:49:20;;;;;;;6.80;2.67;;;3.60;99.90;;;;;;4992134;28;20022;-66
2022/02/05 06:51:45;;;;;;;5.60;2.17;;;3.60;99.90;;;;;;4986833;28;20026;-66
2022/02/05 06:54:11;;;;;;;5.28;1.13;;;3.60;99.90;;;;;;4992331;28;20496;-66
2022/02/05 06:56:37;;;;;;;1.30;1.00;;;3.50;99.90;;;;;;4988723;28;20050;-66
2022/02/05 06:59:03;;;;;;;3.05;1.65;;;3.50;99.90;;;;;;4984768;28;20399;-66
2022/02/05 07:01:28;;;;;;;5.88;2.00;;;3.40;99.90;;;;;;4990133;28;20498;-66
2022/02/05 07:03:54;;;;;;;2.17;1.27;;;3.40;99.90;;;;;;4986281;28;20027;-66
2022/02/05 07:06:19;;;;;;;2.65;1.00;;;3.40;99.90;;;;;;4991699;28;21000;-66
2022/02/05 07:08:45;;;;;;;14.32;1.80;;;3.40;99.90;;;;;;4997403;28;20018;-65
2022/02/05 07:11:11;;;;;;;6.18;1.98;;;3.40;99.90;;;;;;4989462;28;20026;-66
2022/02/05 07:13:37;;;;;;;6.20;2.25;;;3.40;99.90;;;;;;4996601;28;20593;-66
2022/02/05 07:21:03;;;;;;;6.43;1.52;;;3.30;99.90;;;;;;4999316;28;20026;-66
2022/02/05 07:23:42;;;;;;;4.88;1.88;;;3.50;99.90;;;;;;4989352;28;20045;-66
2022/02/05 07:31:37;;;;;;;1.88;1.25;;;3.90;99.90;;;;;;4991727;28;20042;-66
2022/02/05 07:34:03;;;;;;;2.25;1.48;;;3.60;99.90;;;;;;4990164;28;20441;-65
2022/02/05 07:36:28;;;;;;;5.18;2.05;;;3.60;99.90;;;;;;4978911;28;20031;-66
2022/02/05 07:38:54;;;;;;;5.57;1.45;;;3.70;99.90;;;;;;4987079;28;20038;-66
2022/02/05 07:41:19;;;;;;;6.32;2.13;;;3.70;99.90;;;;;;4990372;28;20494;-66
2022/02/05 07:43:45;;;;;;;4.80;1.77;;;3.70;99.90;;;;;;4989380;28;20042;-66
2022/02/05 07:46:12;;;;;;;4.38;1.92;;;3.70;99.90;;;;;;4986702;28;20034;-66
2022/02/05 07:48:39;;;;;;;4.18;1.88;;;3.80;99.90;;;;;;4997757;28;20118;-66
2022/02/05 07:51:05;;;;;;;2.70;1.50;;;3.80;99.90;;;;;;4985626;28;20026;-66
2022/02/05 07:53:31;;;;;;;6.40;2.58;;;3.80;99.90;;;;;;4986168;28;20026;-65
2022/02/05 07:55:59;;;;;;;0.82;0.80;;;3.80;99.90;;;;;;4983158;28;20722;-66
2022/02/05 07:58:25;;;;;;;3.78;1.98;;;3.90;99.90;;;;;;4990660;28;20053;-65
2022/02/05 08:00:52;;;;;;;8.57;1.95;;;3.90;99.90;;;;;;5001214;28;20062;-66
2022/02/05 08:03:17;;;;;;;2.10;1.48;;;4.00;99.90;;;;;;4995856;28;20431;-65
2022/02/05 08:05:43;;;;;;;2.75;1.35;;;4.00;99.90;;;;;;4997185;28;20046;-65
2022/02/05 08:08:13;;;;;;;8.15;1.83;;;4.00;99.90;;;;;;4994899;28;20378;-66
2022/02/05 08:10:47;;;;;;;2.10;1.38;;;4.00;99.90;;;;;;4981800;28;20097;-66
2022/02/05 08:13:13;;;;;;;4.85;1.88;;;4.00;99.90;;;;;;4987325;28;20485;-66
2022/02/05 08:15:39;;;;;;;2.65;1.40;;;4.00;99.90;;;;;;4987399;28;20062;-66
2022/02/05 08:18:05;;;;;;;3.65;1.85;;;4.00;99.90;;;;;;4992617;28;20030;-65
2022/02/05 08:20:31;;;;;;;4.32;1.40;;;4.00;99.90;;;;;;4985377;28;20070;-65
2022/02/05 08:22:56;;;;;;;3.42;1.42;;;4.00;99.90;;;;;;4987121;28;20026;-65
2022/02/05 08:25:22;;;;;;;4.50;2.13;;;4.00;99.90;;;;;;4985952;28;20391;-65
2022/02/05 08:27:48;;;;;;;1.67;1.27;;;4.00;99.90;;;;;;4985627;28;20054;-65
2022/02/05 08:30:14;;;;;;;1.60;1.10;;;3.90;99.90;;;;;;4989490;28;20083;-66
2022/02/05 08:32:41;;;;;;;3.00;1.80;;;3.90;99.90;;;;;;4985072;28;20037;-65
2022/02/05 08:35:08;;;;;;;3.70;1.77;;;3.90;99.90;;;;;;4990358;28;20026;-65
2022/02/05 08:37:45;;;;;;;7.35;1.98;;;3.90;99.90;;;;;;4988223;28;20026;-65
2022/02/05 08:40:10;;;;;;;2.70;1.75;;;4.00;99.90;;;;;;4983021;28;20034;-65
2022/02/05 08:42:36;;;;;;;3.78;1.73;;;4.00;99.90;;;;;;4987092;28;20386;-65
2022/02/05 08:45:03;;;;;;;1.30;1.17;;;3.90;99.90;;;;;;4986725;28;20200;-65
2022/02/05 08:47:29;;;;;;;3.97;1.80;;;4.00;99.90;;;;;;4986060;28;20034;-65
2022/02/05 08:49:56;;;;;;;6.75;1.95;;;4.20;99.90;;;;;;4984443;28;20033;-65
2022/02/05 08:52:22;;;;;;;2.50;1.20;;;4.30;99.90;;;;;;4983064;28;20057;-66
2022/02/05 08:54:48;;;;;;;3.80;1.65;;;4.30;99.90;;;;;;4984630;28;20026;-66
2022/02/05 08:57:14;;;;;;;7.30;2.50;;;4.40;99.90;;;;;;4982382;28;20057;-66
2022/02/05 09:02:21;;;;;;;9.27;1.52;;;4.60;99.90;;;;;;4986290;28;20074;-66
2022/02/05 09:04:58;;;;;;;4.10;1.60;;;4.50;99.90;;;;;;4980539;28;20027;-66
2022/02/05 09:07:23;;;;;;;1.30;1.17;;;4.50;99.90;;;;;;4994189;28;20498;-66
2022/02/05 09:14:59;;;;;;;1.00;0.90;;;4.60;99.90;;;;;;4990243;28;20060;-66
2022/02/05 09:17:25;;;;;;;19.70;3.05;;;4.70;99.90;;;;;;4999892;28;20108;-66
2022/02/05 09:19:51;;;;;;;1.85;1.17;;;4.70;99.90;;;;;;4994390;28;20030;-66
2022/02/05 09:22:17;;;;;;;4.53;1.90;;;4.80;99.90;;;;;;5006394;28;20097;-65
2022/02/05 09:24:42;;;;;;;3.42;1.63;;;4.80;99.90;;;;;;4989684;28;20117;-66
2022/02/05 09:27:12;;;;;;;6.63;2.78;;;4.80;99.90;;;;;;4991148;28;20052;-66
2022/02/05 09:30:03;;;;;;;3.28;2.10;;;4.80;99.90;;;;;;4988022;28;20031;-66
2022/02/05 09:32:25;;;;;;;5.03;2.85;;;4.80;99.90;;;;;;4994488;28;20045;-66
2022/02/05 09:34:51;;;;;;;5.03;1.75;;;4.90;99.90;;;;;;4990455;28;20049;-66
2022/02/05 09:37:16;;;;;;;8.05;3.17;;;4.70;99.90;;;;;;4993407;28;20035;-66
2022/02/05 09:39:43;;;;;;;3.17;1.60;;;4.60;99.90;;;;;;4995436;28;20751;-66
2022/02/05 09:42:11;;;;;;;6.30;2.15;;;4.60;99.90;;;;;;4994667;28;20033;-66
2022/02/05 09:44:37;;;;;;;5.40;2.10;;;4.70;99.90;;;;;;4993968;28;20092;-66
2022/02/05 09:47:03;;;;;;;3.10;1.48;;;4.90;99.90;;;;;;4990658;28;20031;-66
2022/02/05 09:49:29;;;;;;;0.73;0.73;;;5.50;99.90;;;;;;4988841;28;20049;-66
2022/02/05 09:52:07;;;;;;;7.57;4.03;;;6.10;99.90;;;;;;4988289;28;20034;-66
2022/02/05 09:54:37;;;;;;;5.95;2.50;;;6.20;99.90;;;;;;4992747;28;20030;-66
2022/02/05 09:57:03;;;;;;;;;;;6.80;99.90;;;;;;4999478;28;20046;-66
2022/02/05 09:59:30;;;;;;;2.05;1.50;;;6.50;99.90;;;;;;4997728;28;20020;-66
2022/02/05 10:02:17;;;;;;;4.25;2.78;;;6.10;99.90;;;;;;4992660;28;20110;-66
2022/02/05 10:05:09;;;;;;;12.70;2.35;;;6.50;99.90;;;;;;4988969;28;20026;-66
2022/02/05 10:07:51;;;;;;;3.45;1.92;;;5.60;99.90;;;;;;4995907;28;20120;-66
2022/02/05 10:10:16;;;;;;;6.90;2.05;;;5.60;99.90;;;;;;4986099;28;20026;-66
2022/02/05 10:12:42;;;;;;;4.40;1.50;;;5.80;99.90;;;;;;4988495;28;20449;-66
2022/02/05 10:15:09;;;;;;;2.33;1.40;;;5.80;99.90;;;;;;4997556;28;20033;-66
2022/02/05 10:17:38;;;;;;;2.97;1.35;;;5.70;99.90;;;;;;4989135;28;20069;-66
2022/02/05 10:20:06;;;;;;;3.53;1.25;;;6.00;99.90;;;;;;4990656;28;20022;-66
2022/02/05 10:22:38;;;;;;;2.15;0.98;;;6.00;99.90;;;;;;4987683;28;20703;-66
2022/02/05 10:25:15;;;;;;;3.38;1.77;;;5.90;99.90;;;;;;4996273;28;20026;-66
2022/02/05 10:27:42;;;;;;;4.38;2.13;;;5.80;99.90;;;;;;5010805;28;20394;-66
2022/02/05 10:30:22;;;;;;;5.72;2.67;;;5.80;99.90;;;;;;4992391;28;20045;-66
2022/02/05 10:32:56;;;;;;;3.28;1.33;;;5.80;99.90;;;;;;4990357;28;20035;-66
2022/02/05 10:35:30;;;;;;;4.18;1.77;;;6.00;99.90;;;;;;4991665;28;20103;-66
2022/02/05 10:43:00;;;;;;;4.63;1.60;;;6.00;99.90;;;;;;4972570;28;20453;-66
2022/02/05 10:43:48;;;;;;;2.03;1.30;;;6.10;99.90;;;;;;4983907;28;20038;-66
2022/02/05 10:46:14;;;;;;;12.10;3.33;;;6.10;99.90;;;;;;4995635;28;20407;-66
2022/02/05 10:48:41;;;;;;;10.07;2.78;;;6.10;99.90;;;;;;4992720;28;20029;-66
2022/02/05 10:51:07;;;;;;;9.48;2.00;;;6.20;99.90;;;;;;4992776;28;20018;-66
2022/02/05 10:53:38;;;;;;;7.50;1.73;;;6.30;99.90;;;;;;4991675;28;20501;-66
2022/02/05 11:07:08;;;;;;;6.00;1.65;;;6.50;99.90;;;;;;4994614;28;20509;-66
2022/02/05 11:09:34;;;;;;;3.28;1.58;;;6.40;99.90;;;;;;4991444;28;20026;-66
2022/02/05 11:20:19;;;;;;;4.15;1.98;;;8.10;99.90;;;;;;4987059;28;20093;-66
2022/02/05 11:23:06;;;;;;;3.30;1.13;;;8.20;99.90;;;;;;4996084;28;20078;-66
2022/02/05 11:25:36;;;;;;;5.53;1.98;;;8.80;99.90;;;;;;4984230;28;20033;-66
2022/02/05 11:28:02;;;;;;;6.60;1.73;;;7.90;99.90;;;;;;5010363;28;20038;-66
2022/02/05 11:30:28;;;;;;;3.80;1.70;;;7.80;99.90;;;;;;4992277;28;20226;-66
2022/02/05 11:33:02;;;;;;;3.53;1.52;;;7.40;99.90;;;;;;4997298;28;20541;-66
2022/02/05 11:38:36;;;;;;;4.47;1.60;;;7.00;99.90;;;;;;4987926;28;20553;-66
2022/02/05 11:41:04;;;;;;;4.57;1.50;;;7.50;99.90;;;;;;4990550;28;20029;-66
2022/02/05 11:43:32;;;;;;;3.70;1.30;;;7.10;99.90;;;;;;4985211;28;20022;-66
2022/02/05 11:46:11;;;;;;;3.60;1.40;;;6.60;99.90;;;;;;4996828;28;20023;-66
2022/02/05 11:48:44;;;;;;;0.98;0.80;;;6.50;99.90;;;;;;4996645;28;20053;-66
2022/02/05 11:51:32;;;;;;;2.00;1.17;;;6.90;99.90;;;;;;5005540;28;20030;-66
2022/02/05 11:53:58;;;;;;;1.88;1.00;;;7.10;99.90;;;;;;4994331;28;20437;-66
2022/02/05 11:59:29;;;;;;;2.42;1.02;;;6.90;99.90;;;;;;4992374;28;20030;-66
2022/02/05 12:02:18;;;;;;;2.83;1.25;;;6.80;99.90;;;;;;4989429;28;20027;-66
2022/02/05 12:04:44;;;;;;;14.57;1.20;;;7.60;99.90;;;;;;4992180;28;20157;-66
2022/02/05 12:07:12;;;;;;;2.15;1.17;;;7.30;99.90;;;;;;4988968;28;20042;-66
2022/02/05 12:09:44;;;;;;;2.45;1.20;;;7.20;99.90;;;;;;4991932;28;20033;-66
2022/02/05 12:12:39;;;;;;;1.27;0.85;;;7.90;99.90;;;;;;4996120;28;20026;-66
2022/02/05 12:15:15;;;;;;;5.72;1.42;;;8.30;99.90;;;;;;4986087;28;20486;-66
2022/02/05 12:20:34;;;;;;;3.75;1.50;;;7.40;99.90;;;;;;4983713;28;20513;-66
2022/02/05 12:23:23;;;;;;;3.63;1.30;;;7.20;99.90;;;;;;4994320;28;20033;-66
2022/02/05 12:25:58;;;;;;;0.70;0.70;;;7.60;99.90;;;;;;4990497;28;20094;-66
2022/02/05 12:28:36;;;;;;;2.92;1.00;;;7.90;99.90;;;;;;4991278;28;20434;-67
2022/02/05 12:31:04;;;;;;;1.73;1.13;;;7.60;99.90;;;;;;4985307;28;20032;-66
2022/02/05 12:33:56;;;;;;;0.98;0.80;;;7.80;99.90;;;;;;4992932;28;20022;-67
2022/02/05 12:36:39;;;;;;;2.97;1.30;;;8.30;99.90;;;;;;4995119;28;20038;-67
2022/02/05 12:39:25;;;;;;;3.72;1.15;;;8.80;99.90;;;;;;4987853;28;20041;-66
2022/02/05 12:41:53;;;;;;;3.45;1.33;;;8.50;99.90;;;;;;4981454;28;20142;-67
2022/02/05 12:44:24;;;;;;;0.98;0.80;;;8.20;99.90;;;;;;4988974;28;20022;-67
2022/02/05 12:47:02;;;;;;;4.70;0.98;;;8.20;99.90;;;;;;4990161;28;20556;-66
2022/02/05 12:49:34;;;;;;;2.47;1.27;;;8.10;99.90;;;;;;4979909;28;20076;-66
2022/02/05 12:52:01;;;;;;;2.40;1.15;;;8.20;99.90;;;;;;4983843;28;20022;-66
2022/02/05 12:54:29;;;;;;;1.85;1.00;;;7.80;99.90;;;;;;5005130;28;20475;-66
2022/02/05 12:56:58;;;;;;;4.25;1.30;;;7.50;99.90;;;;;;4981336;28;20030;-66
2022/02/05 12:59:43;;;;;;;3.55;1.27;;;7.50;99.90;;;;;;4983607;28;20722;-66
2022/02/05 13:02:11;;;;;;;3.13;1.25;;;7.90;99.90;;;;;;4979119;28;20038;-66
2022/02/05 13:04:42;;;;;;;6.00;1.30;;;7.60;99.90;;;;;;4991463;28;20026;-66
2022/02/05 13:07:22;;;;;;;1.48;1.00;;;8.10;99.90;;;;;;4990811;28;20102;-66
2022/02/05 13:09:57;;;;;;;1.70;0.85;;;8.70;99.90;;;;;;4991559;28;20040;-66
2022/02/05 13:12:42;;;;;;;3.72;1.55;;;8.90;99.90;;;;;;4995005;28;20077;-67
2022/02/05 13:26:21;;;;;;;2.35;1.02;;;7.40;99.90;;;;;;5000088;28;20045;-66
2022/02/05 13:34:25;;;;;;;3.55;1.17;;;7.70;99.90;;;;;;4997592;28;20056;-66
2022/02/05 13:42:06;;;;;;;3.28;1.20;;;7.80;99.90;;;;;;4988393;28;20041;-66
2022/02/05 13:44:55;;;;;;;4.07;1.38;;;8.10;99.90;;;;;;4998065;28;20080;-66
2022/02/05 13:47:23;;;;;;;3.42;1.30;;;7.80;99.90;;;;;;4991671;28;20627;-66
2022/02/05 13:50:19;;;;;;;1.30;0.90;;;7.60;99.90;;;;;;4991550;28;20054;-66
2022/02/05 13:52:53;;;;;;;1.48;0.90;;;7.50;99.90;;;;;;4992032;28;20038;-66
2022/02/05 13:55:23;;;;;;;5.25;1.50;;;7.40;99.90;;;;;;4988712;28;20050;-66
2022/02/05 13:58:09;;;;;;;3.45;1.55;;;7.10;99.90;;;;;;5011253;28;20145;-66
2022/02/05 14:00:53;;;;;;;2.05;1.23;;;7.00;99.90;;;;;;4999159;28;20045;-66
2022/02/05 14:03:36;;;;;;;2.20;1.08;;;7.10;99.90;;;;;;5000701;28;20026;-66
2022/02/05 14:06:04;;;;;;;16.38;2.00;;;7.10;99.90;;;;;;4998445;28;20590;-66
2022/02/05 14:08:46;;;;;;;1.65;1.00;;;6.90;99.90;;;;;;4999556;28;20036;-66
2022/02/05 14:11:14;;;;;;;3.35;1.20;;;7.00;99.90;;;;;;4993471;28;20038;-66
2022/02/05 14:13:40;;;;;;;2.67;1.17;;;6.90;99.90;;;;;;4992322;28;20544;-66
2022/02/05 14:16:07;;;;;;;8.20;1.23;;;6.90;99.90;;;;;;4991737;28;20129;-66
2022/02/05 14:18:49;;;;;;;24.25;1.80;;;7.10;99.90;;;;;;4995139;28;20054;-66
2022/02/05 14:21:14;;;;;;;2.25;1.27;;;7.10;99.90;;;;;;4992553;28;20096;-66
2022/02/05 14:23:51;;;;;;;2.47;1.35;;;7.10;99.90;;;;;;4988676;28;20566;-66
2022/02/05 14:26:20;;;;;;;1.17;0.80;;;7.10;99.90;;;;;;4998678;28;20505;-66
2022/02/05 14:28:56;;;;;;;1.50;0.90;;;7.10;99.90;;;;;;4991872;28;20042;-66
2022/02/05 14:42:13;;;;;;;;;;;7.30;99.90;;;;;;4997969;28;20087;-66
2022/02/05 14:44:39;;;;;;;4.32;1.33;;;7.20;99.90;;;;;;5004297;28;19916;-66
2022/02/05 14:47:06;;;;;;;2.28;1.08;;;7.20;99.90;;;;;;5001709;28;20116;-66
2022/02/05 14:49:32;;;;;;;18.42;1.48;;;7.00;99.90;;;;;;4995621;28;20022;-66
2022/02/05 14:52:01;;;;;;;0.90;0.70;;;7.10;99.90;;;;;;4998135;28;20030;-66
2022/02/05 14:54:28;;;;;;;2.17;1.00;;;7.10;99.90;;;;;;4998135;28;20037;-66
2022/02/05 14:56:53;;;;;;;3.25;0.93;;;7.20;99.90;;;;;;4994965;28;20037;-66
2022/02/05 14:59:19;;;;;;;2.03;1.08;;;7.20;99.90;;;;;;4996890;28;20568;-67
2022/02/05 15:01:45;;;;;;;2.60;1.38;;;7.10;99.90;;;;;;4994162;28;20034;-67
2022/02/05 15:04:10;;;;;;;0.60;0.60;;;7.00;99.90;;;;;;5008657;28;20022;-67
2022/02/05 15:06:36;;;;;;;3.08;1.20;;;7.00;99.90;;;;;;4991457;28;20056;-67
2022/02/05 15:09:07;;;;;;;0.60;0.60;;;6.90;99.90;;;;;;4996152;28;20077;-66
2022/02/05 15:11:33;;;;;;;1.05;0.80;;;6.90;99.90;;;;;;5005047;28;20025;-67
2022/02/05 15:14:01;;;;;;;2.70;1.48;;;6.80;99.90;;;;;;5000325;28;20564;-67
2022/02/05 15:16:30;;;;;;;2.20;0.90;;;6.80;99.90;;;;;;5000866;28;20026;-67
2022/02/05 15:18:56;;;;;;;1.75;0.82;;;6.70;99.90;;;;;;4989819;28;20030;-67
2022/02/05 15:21:26;;;;;;;2.75;1.38;;;6.70;99.90;;;;;;4997462;28;20023;-67
2022/02/05 15:23:52;;;;;;;1.90;1.00;;;6.60;99.90;;;;;;4982444;28;20031;-67
2022/02/05 15:26:19;;;;;;;3.30;1.52;;;6.60;99.90;;;;;;4988163;28;20473;-67
2022/02/05 15:28:46;;;;;;;1.75;0.80;;;6.60;99.90;;;;;;4989560;28;20018;-68
2022/02/05 15:31:12;;;;;;;4.35;1.63;;;6.60;99.90;;;;;;4988377;28;20033;-67
2022/02/05 15:33:46;;;;;;;4.60;1.35;;;6.60;99.90;;;;;;4984985;28;20026;-67
2022/02/05 15:36:17;;;;;;;2.70;1.55;;;6.50;99.90;;;;;;4998019;28;20041;-67
2022/02/05 15:38:50;;;;;;;7.18;2.03;;;6.50;99.90;;;;;;4990234;28;20497;-67
2022/02/05 15:43:59;;;;;;;2.22;1.25;;;6.50;99.90;;;;;;4998334;28;20510;-67
2022/02/05 15:46:25;;;;;;;1.88;1.00;;;6.50;99.90;;;;;;4996540;28;20026;-67
2022/02/05 15:48:51;;;;;;;2.05;1.45;;;6.50;99.90;;;;;;4993663;28;20030;-67
2022/02/05 15:51:18;;;;;;;3.42;1.13;;;6.50;99.90;;;;;;4994486;28;20053;-67
2022/02/05 15:53:55;;;;;;;3.17;1.05;;;6.50;99.90;;;;;;4996727;28;20116;-67
2022/02/05 15:58:53;;;;;;;0.82;0.80;;;6.40;99.90;;;;;;4994924;28;20057;-67
2022/02/05 16:01:19;;;;;;;1.70;0.95;;;6.40;99.90;;;;;;4991793;28;20486;-67
2022/02/05 16:03:45;;;;;;;1.27;0.88;;;6.40;99.90;;;;;;4995654;28;20100;-67
2022/02/05 16:06:11;;;;;;;3.13;1.55;;;6.40;99.90;;;;;;4998778;28;20045;-67
2022/02/05 16:08:36;;;;;;;1.88;0.95;;;6.40;99.90;;;;;;4991576;28;20023;-67
2022/02/05 16:11:02;;;;;;;3.55;1.10;;;6.50;99.90;;;;;;4988454;28;20049;-67
2022/02/05 16:13:27;;;;;;;1.45;1.00;;;6.50;99.90;;;;;;4998433;28;20524;-67
2022/02/05 16:15:53;;;;;;;1.55;0.85;;;6.40;99.90;;;;;;4998425;28;20036;-67
2022/02/05 16:18:19;;;;;;;3.60;1.77;;;6.50;99.90;;;;;;4996389;28;20687;-67
2022/02/05 16:20:44;;;;;;;0.80;0.80;;;6.40;99.90;;;;;;4995594;28;20109;-67
2022/02/05 16:23:10;;;;;;;1.55;1.08;;;6.40;99.90;;;;;;4990869;28;20026;-67
2022/02/05 16:25:36;;;;;;;4.60;1.20;;;6.40;99.90;;;;;;4986093;28;20510;-67
2022/02/05 16:28:03;;;;;;;1.25;1.02;;;6.40;99.90;;;;;;4995439;28;20052;-67
2022/02/05 16:30:31;;;;;;;2.92;1.17;;;6.40;99.90;;;;;;4996044;28;20033;-67
2022/02/05 16:32:58;;;;;;;1.33;0.73;;;6.40;99.90;;;;;;4994321;28;20028;-67
2022/02/05 16:35:28;;;;;;;0.68;0.68;;;6.40;99.90;;;;;;4994116;28;20093;-67
2022/02/05 16:37:58;;;;;;;1.83;1.42;;;6.40;99.90;;;;;;4991358;28;20042;-67
2022/02/05 16:40:28;;;;;;;2.40;0.85;;;6.40;99.90;;;;;;4987453;28;20030;-67
2022/02/05 16:42:53;;;;;;;2.42;1.30;;;6.40;99.90;;;;;;4993385;28;20087;-67